Time;durP1;ratioP1;P1;durP2;ratioP2;P2;SDS_P1;SDS_P2;PMS_P1;PMS_P2;Temp;Humidity;BMP_temperature;BMP_pressure;BME280_temperature;BME280_humidity;BME280_pressure;Samples;Min_cycle;Max_cycle;Signal;HPM_P1;HPM_P2
2023/02/06 00:00:07;;;;;;;19.6;9.6;;;;;;;;;;;;;
2023/02/06 00:02:32;;;;;;;17.9;9.9;;;;;;;;;;;;;
2023/02/06 00:04:59;;;;;;;18.8;10.5;;;;;;;;;;;;;
2023/02/06 00:07:24;;;;;;;14.5;10;;;;;;;;;;;;;
2023/02/06 00:09:59;;;;;;;15.9;10;;;;;;;;;;;;;
2023/02/06 00:12:24;;;;;;;18.6;10.7;;;;;;;;;;;;;
2023/02/06 00:14:49;;;;;;;15.1;10.2;;;;;;;;;;;;;
2023/02/06 00:17:14;;;;;;;17.7;10.1;;;;;;;;;;;;;
2023/02/06 00:19:41;;;;;;;19.3;10.9;;;;;;;;;;;;;
2023/02/06 00:22:06;;;;;;;18.1;10.7;;;;;;;;;;;;;
2023/02/06 00:24:32;;;;;;;17.3;10.6;;;;;;;;;;;;;
2023/02/06 00:26:57;;;;;;;18.6;10.5;;;;;;;;;;;;;
2023/02/06 00:29:24;;;;;;;19.2;11.8;;;;;;;;;;;;;
2023/02/06 00:31:50;;;;;;;17.3;11.1;;;;;;;;;;;;;
2023/02/06 00:34:15;;;;;;;18.7;11.5;;;;;;;;;;;;;
2023/02/06 00:36:40;;;;;;;22.1;11.8;;;;;;;;;;;;;
2023/02/06 00:39:06;;;;;;;20.6;11.3;;;;;;;;;;;;;
2023/02/06 00:41:32;;;;;;;19.2;10.6;;;;;;;;;;;;;
2023/02/06 00:43:57;;;;;;;19.4;11.2;;;;;;;;;;;;;
2023/02/06 00:46:25;;;;;;;16.9;10.4;;;;;;;;;;;;;
2023/02/06 00:48:54;;;;;;;15.9;10.4;;;;;;;;;;;;;
2023/02/06 00:51:19;;;;;;;19.1;10.7;;;;;;;;;;;;;
2023/02/06 00:53:45;;;;;;;16.8;10.7;;;;;;;;;;;;;
2023/02/06 00:56:09;;;;;;;19.4;11.5;;;;;;;;;;;;;
2023/02/06 00:58:35;;;;;;;20.2;11.5;;;;;;;;;;;;;
2023/02/06 01:01:00;;;;;;;18;10.7;;;;;;;;;;;;;
2023/02/06 01:03:25;;;;;;;21.8;10.7;;;;;;;;;;;;;
2023/02/06 01:05:54;;;;;;;16.8;10.5;;;;;;;;;;;;;
2023/02/06 01:08:20;;;;;;;18.4;10.1;;;;;;;;;;;;;
2023/02/06 01:13:10;;;;;;;18.9;11.8;;;;;;;;;;;;;
2023/02/06 01:15:36;;;;;;;20.4;11.8;;;;;;;;;;;;;
2023/02/06 01:18:01;;;;;;;20.5;11.4;;;;;;;;;;;;;
2023/02/06 01:20:26;;;;;;;19.2;11.8;;;;;;;;;;;;;
2023/02/06 01:22:51;;;;;;;18.9;11.5;;;;;;;;;;;;;
2023/02/06 01:25:16;;;;;;;18.7;11.8;;;;;;;;;;;;;
2023/02/06 01:27:42;;;;;;;18.7;10.9;;;;;;;;;;;;;
2023/02/06 01:30:10;;;;;;;21.9;10.7;;;;;;;;;;;;;
2023/02/06 01:32:35;;;;;;;18.5;10.8;;;;;;;;;;;;;
2023/02/06 01:35:00;;;;;;;15.6;9.5;;;;;;;;;;;;;
2023/02/06 01:37:25;;;;;;;15.4;9.9;;;;;;;;;;;;;
2023/02/06 01:39:52;;;;;;;15;10.1;;;;;;;;;;;;;
2023/02/06 01:42:17;;;;;;;17.5;10.8;;;;;;;;;;;;;
2023/02/06 01:44:43;;;;;;;16;10.2;;;;;;;;;;;;;
2023/02/06 01:47:09;;;;;;;20.4;10.9;;;;;;;;;;;;;
2023/02/06 01:49:34;;;;;;;16.9;10.5;;;;;;;;;;;;;
2023/02/06 01:51:59;;;;;;;14.6;9.6;;;;;;;;;;;;;
2023/02/06 01:54:24;;;;;;;15.3;9.4;;;;;;;;;;;;;
2023/02/06 01:56:49;;;;;;;14;9.1;;;;;;;;;;;;;
2023/02/06 01:59:16;;;;;;;13.7;9.5;;;;;;;;;;;;;
2023/02/06 02:01:41;;;;;;;13.3;9.5;;;;;;;;;;;;;
2023/02/06 02:04:07;;;;;;;14.1;9.6;;;;;;;;;;;;;
2023/02/06 02:06:32;;;;;;;13.4;8.9;;;;;;;;;;;;;
2023/02/06 02:08:58;;;;;;;11.3;8.5;;;;;;;;;;;;;
2023/02/06 02:11:23;;;;;;;14.3;9.3;;;;;;;;;;;;;
2023/02/06 02:13:50;;;;;;;15;9.6;;;;;;;;;;;;;
2023/02/06 02:16:15;;;;;;;13.3;9.6;;;;;;;;;;;;;
2023/02/06 02:18:40;;;;;;;13.3;9.2;;;;;;;;;;;;;
2023/02/06 02:23:17;;;;;;;12.1;9.2;;;;;;;;;;;;;
2023/02/06 02:25:42;;;;;;;13.7;9.9;;;;;;;;;;;;;
2023/02/06 02:28:07;;;;;;;15.1;10;;;;;;;;;;;;;
2023/02/06 02:30:32;;;;;;;15.3;10.6;;;;;;;;;;;;;
2023/02/06 02:32:57;;;;;;;17.4;11.1;;;;;;;;;;;;;
2023/02/06 02:35:22;;;;;;;16.8;11.3;;;;;;;;;;;;;
2023/02/06 02:37:49;;;;;;;15.5;10.7;;;;;;;;;;;;;
2023/02/06 02:40:16;;;;;;;16.6;11.4;;;;;;;;;;;;;
2023/02/06 02:42:41;;;;;;;17.3;10.9;;;;;;;;;;;;;
2023/02/06 02:45:06;;;;;;;17.3;10.7;;;;;;;;;;;;;
2023/02/06 02:47:31;;;;;;;17.7;11.4;;;;;;;;;;;;;
2023/02/06 02:49:56;;;;;;;17.4;11.7;;;;;;;;;;;;;
2023/02/06 02:52:25;;;;;;;16.9;10.8;;;;;;;;;;;;;
2023/02/06 02:54:50;;;;;;;15.4;9.6;;;;;;;;;;;;;
2023/02/06 02:57:15;;;;;;;14.7;9.6;;;;;;;;;;;;;
2023/02/06 02:59:40;;;;;;;15.7;10.2;;;;;;;;;;;;;
2023/02/06 03:02:05;;;;;;;12.5;9.4;;;;;;;;;;;;;
2023/02/06 03:04:30;;;;;;;13.9;9.1;;;;;;;;;;;;;
2023/02/06 03:06:55;;;;;;;13.1;8.2;;;;;;;;;;;;;
2023/02/06 03:09:23;;;;;;;12.6;8.8;;;;;;;;;;;;;
2023/02/06 03:11:48;;;;;;;12.8;8.6;;;;;;;;;;;;;
2023/02/06 03:14:14;;;;;;;13.6;8.5;;;;;;;;;;;;;
2023/02/06 03:16:39;;;;;;;12.8;9.2;;;;;;;;;;;;;
2023/02/06 03:19:04;;;;;;;14.2;8.5;;;;;;;;;;;;;
2023/02/06 03:21:30;;;;;;;11.2;7.9;;;;;;;;;;;;;
2023/02/06 03:23:55;;;;;;;11.1;7.8;;;;;;;;;;;;;
2023/02/06 03:26:22;;;;;;;10.1;6.8;;;;;;;;;;;;;
2023/02/06 03:28:47;;;;;;;9.4;7.1;;;;;;;;;;;;;
2023/02/06 03:31:12;;;;;;;8.8;6.4;;;;;;;;;;;;;
2023/02/06 03:33:37;;;;;;;8.5;6.4;;;;;;;;;;;;;
2023/02/06 03:36:05;;;;;;;9.4;6.5;;;;;;;;;;;;;
2023/02/06 03:38:30;;;;;;;9.4;6.7;;;;;;;;;;;;;
2023/02/06 03:40:55;;;;;;;8.2;6.4;;;;;;;;;;;;;
2023/02/06 03:43:21;;;;;;;10.8;6.8;;;;;;;;;;;;;
2023/02/06 03:45:46;;;;;;;9.4;7.1;;;;;;;;;;;;;
2023/02/06 03:48:12;;;;;;;13.6;9.1;;;;;;;;;;;;;
2023/02/06 03:50:37;;;;;;;13.6;8.8;;;;;;;;;;;;;
2023/02/06 03:53:03;;;;;;;14;8.9;;;;;;;;;;;;;
2023/02/06 03:55:28;;;;;;;15.2;10;;;;;;;;;;;;;
2023/02/06 03:57:53;;;;;;;17.5;10.8;;;;;;;;;;;;;
2023/02/06 04:02:31;;;;;;;18.1;12.2;;;;;;;2.1;92.60449;953.2134;;;;
2023/02/06 04:04:56;;;;;;;16.2;11.7;;;;;;;2.09;92.30176;953.2617;;;;
2023/02/06 04:07:28;;;;;;;19.2;11.6;;;;;;;1.99;92.46875;953.2664;;;;
2023/02/06 04:09:53;;;;;;;19.3;12.7;;;;;;;1.85;93.1084;953.3365;;;;
2023/02/06 04:12:25;;;;;;;20.5;11.9;;;;;;;1.54;94.81836;953.3524;;;;
2023/02/06 04:14:54;;;;;;;19.5;12.8;;;;;;;1.58;94.82813;953.4609;;;;
2023/02/06 04:17:20;;;;;;;23.6;13.2;;;;;;;1.62;94.79199;953.4116;;;;
2023/02/06 04:19:45;;;;;;;19.9;13.1;;;;;;;1.55;94.71777;953.4742;;;;
2023/02/06 04:22:15;;;;;;;20.2;13.5;;;;;;;1.56;94.81152;953.5402;;;;
2023/02/06 04:24:46;;;;;;;22.3;13.7;;;;;;;1.59;94.875;953.5746;;;;
2023/02/06 04:27:15;;;;;;;23.7;15.2;;;;;;;1.47;94.5791;953.5845;;;;
2023/02/06 04:29:40;;;;;;;21.8;14.6;;;;;;;1.48;94.90527;953.4478;;;;
2023/02/06 04:32:06;;;;;;;23.1;15.2;;;;;;;1.45;95.23633;953.5214;;;;
2023/02/06 04:34:31;;;;;;;25.3;15.1;;;;;;;1.56;95.09082;953.6178;;;;
2023/02/06 04:37:00;;;;;;;26.5;15.9;;;;;;;1.6;94.55273;953.6036;;;;
2023/02/06 04:39:25;;;;;;;25.2;15.1;;;;;;;1.7;94.32715;953.611;;;;
2023/02/06 04:41:54;;;;;;;24.2;15.1;;;;;;;1.71;94.07422;953.6255;;;;
2023/02/06 04:44:19;;;;;;;24.5;15.5;;;;;;;1.71;94.04004;953.5884;;;;
2023/02/06 04:46:46;;;;;;;25.6;15.3;;;;;;;1.74;93.83398;953.5848;;;;
2023/02/06 04:49:11;;;;;;;25.5;15.8;;;;;;;1.65;93.75977;953.7606;;;;
2023/02/06 04:51:36;;;;;;;23.5;14.7;;;;;;;1.57;94.08691;953.6624;;;;
2023/02/06 04:54:05;;;;;;;25;14.3;;;;;;;1.73;93.85449;953.574;;;;
2023/02/06 04:56:31;;;;;;;21.9;13.7;;;;;;;1.81;93.3916;953.593;;;;
2023/02/06 04:58:56;;;;;;;21;14.5;;;;;;;1.83;92.9834;953.6152;;;;
2023/02/06 05:01:25;;;;;;;21.2;14.3;;;;;;;1.8;92.71777;953.5628;;;;
2023/02/06 05:03:55;;;;;;;22.7;14.4;;;;;;;1.68;93.24023;953.593;;;;
2023/02/06 05:06:20;;;;;;;24;14.1;;;;;;;1.67;93.89844;953.5939;;;;
2023/02/06 05:08:46;;;;;;;23;15.7;;;;;;;1.67;93.61621;953.5811;;;;
2023/02/06 05:11:12;;;;;;;22.4;14.3;;;;;;;1.72;93.16992;953.5809;;;;
2023/02/06 05:13:41;;;;;;;23;15;;;;;;;1.61;93.55762;953.5995;;;;
2023/02/06 05:16:06;;;;;;;22.3;14.4;;;;;;;1.74;93.62305;953.6125;;;;
2023/02/06 05:18:35;;;;;;;25;15.3;;;;;;;1.82;92.93457;953.5363;;;;
2023/02/06 05:20:59;;;;;;;23.9;15.7;;;;;;;1.84;92.45703;953.5988;;;;
2023/02/06 05:23:26;;;;;;;23.3;15.2;;;;;;;1.85;92.24707;953.5983;;;;
2023/02/06 05:25:51;;;;;;;25.9;16.2;;;;;;;1.79;91.93262;953.6111;;;;
2023/02/06 05:28:21;;;;;;;23.7;15.6;;;;;;;1.84;91.6543;953.5505;;;;
2023/02/06 05:30:54;;;;;;;23.4;15.2;;;;;;;1.65;91.98145;953.5455;;;;
2023/02/06 05:33:20;;;;;;;20.7;15.7;;;;;;;1.76;91.78125;953.4442;;;;
2023/02/06 05:35:50;;;;;;;21.6;15.1;;;;;;;1.82;91.25684;953.5422;;;;
2023/02/06 05:38:16;;;;;;;21.8;15.1;;;;;;;1.81;91.24316;953.4869;;;;
2023/02/06 05:40:41;;;;;;;22.1;15.8;;;;;;;1.86;90.7959;953.4749;;;;
2023/02/06 05:43:14;;;;;;;22.6;14.9;;;;;;;1.78;90.55273;953.5168;;;;
2023/02/06 05:46:53;;;;;;;19.9;14.4;;;;;;;1.74;90.11133;953.5648;;;;
2023/02/06 05:49:23;;;;;;;20.7;14.1;;;;;;;1.8;90.58105;953.5613;;;;
2023/02/06 05:51:48;;;;;;;21.6;14.7;;;;;;;1.79;90.03125;953.5358;;;;
2023/02/06 05:54:17;;;;;;;20;15.3;;;;;;;1.84;89.50391;953.5234;;;;
2023/02/06 05:56:41;;;;;;;23.8;16.7;;;;;;;1.81;89.19629;953.5145;;;;
2023/02/06 05:59:31;;;;;;;20.9;15.8;;;;;;;1.69;89.5625;953.4405;;;;
2023/02/06 06:02:01;;;;;;;23.2;16.3;;;;;;;1.75;89.38379;953.3788;;;;
2023/02/06 06:04:26;;;;;;;21.9;15.6;;;;;;;1.7;89.12695;953.3677;;;;
2023/02/06 06:06:56;;;;;;;21.3;15.6;;;;;;;1.76;88.92871;953.2997;;;;
2023/02/06 06:09:21;;;;;;;20.8;15.2;;;;;;;1.71;88.97363;953.2955;;;;
2023/02/06 06:11:46;;;;;;;21.5;14.5;;;;;;;1.53;88.90234;953.2597;;;;
2023/02/06 06:14:11;;;;;;;24.4;16.4;;;;;;;1.3;90.40625;953.257;;;;
2023/02/06 06:16:41;;;;;;;24.3;16.4;;;;;;;1.45;90.22461;953.1998;;;;
2023/02/06 06:19:06;;;;;;;21.2;15.6;;;;;;;1.18;90.10156;953.2589;;;;
2023/02/06 06:21:49;;;;;;;22.4;14.6;;;;;;;1.13;90.92773;953.1791;;;;
2023/02/06 06:24:18;;;;;;;20.4;15;;;;;;;1.29;90.37109;953.1434;;;;
2023/02/06 06:26:43;;;;;;;21.9;14.6;;;;;;;1.48;89.4502;953.1219;;;;
2023/02/06 06:29:11;;;;;;;19.4;14.2;;;;;;;1.22;88.68164;953.175;;;;
2023/02/06 06:31:36;;;;;;;18.6;14.3;;;;;;;1.39;88.97266;953.1227;;;;
2023/02/06 06:34:05;;;;;;;22.2;14.3;;;;;;;1.53;88.73438;953.1105;;;;
2023/02/06 06:36:30;;;;;;;20;14.1;;;;;;;1.47;88.19824;953.1146;;;;
2023/02/06 06:38:57;;;;;;;19.6;13.9;;;;;;;1.6;87.55176;953.2133;;;;
2023/02/06 06:41:22;;;;;;;18.9;13.4;;;;;;;1.57;87.64648;953.2369;;;;
2023/02/06 06:43:54;;;;;;;18.9;14.2;;;;;;;1.47;87.29004;953.2031;;;;
2023/02/06 06:46:19;;;;;;;18.5;14;;;;;;;1.7;87.29395;953.2564;;;;
2023/02/06 06:48:47;;;;;;;20.4;14.1;;;;;;;1.79;86.19434;953.2541;;;;
2023/02/06 06:51:12;;;;;;;18.9;13.5;;;;;;;1.87;85.67383;953.2107;;;;
2023/02/06 06:53:40;;;;;;;18.3;14.1;;;;;;;1.71;86.25586;953.2916;;;;
2023/02/06 06:56:09;;;;;;;17.5;14.3;;;;;;;1.78;85.95703;953.3387;;;;
2023/02/06 06:58:34;;;;;;;20;14.4;;;;;;;1.81;86.08789;953.4048;;;;
2023/02/06 07:01:03;;;;;;;20.8;14.6;;;;;;;1.85;86.07129;953.4424;;;;
2023/02/06 07:03:28;;;;;;;19.2;13.4;;;;;;;1.87;85.86426;953.4567;;;;
2023/02/06 07:05:56;;;;;;;19.4;14.6;;;;;;;1.97;85.57031;953.3992;;;;
2023/02/06 07:08:25;;;;;;;18.9;13.9;;;;;;;1.88;85.46094;953.4712;;;;
2023/02/06 07:10:50;;;;;;;21.5;14.9;;;;;;;1.99;84.94727;953.4352;;;;
2023/02/06 07:13:18;;;;;;;18.5;13.6;;;;;;;2.11;84.75977;953.535;;;;
2023/02/06 07:15:43;;;;;;;18.5;13.6;;;;;;;2.17;84.50195;953.5565;;;;
2023/02/06 07:18:10;;;;;;;17.8;13.7;;;;;;;2.29;84.17871;953.5924;;;;
2023/02/06 07:20:36;;;;;;;18.5;13.2;;;;;;;2.37;83.60254;953.5411;;;;
2023/02/06 07:23:03;;;;;;;18.7;13.3;;;;;;;2.39;82.66113;953.4609;;;;
2023/02/06 07:25:28;;;;;;;15.9;12.3;;;;;;;2.22;82.70996;953.4598;;;;
2023/02/06 07:27:56;;;;;;;19.8;13;;;;;;;2.14;83.22949;953.4649;;;;
2023/02/06 07:30:21;;;;;;;18.1;12.7;;;;;;;2.27;83.35742;953.4135;;;;
2023/02/06 07:32:47;;;;;;;16.5;12.4;;;;;;;2.28;83.21289;953.45;;;;
2023/02/06 07:35:14;;;;;;;17.5;13.3;;;;;;;2.38;82.96387;953.4474;;;;
2023/02/06 07:37:42;;;;;;;17.3;12.9;;;;;;;2.37;82.99414;953.4833;;;;
2023/02/06 07:40:07;;;;;;;17.8;12.9;;;;;;;2.37;82.40234;953.4952;;;;
2023/02/06 07:42:35;;;;;;;16.2;12;;;;;;;2.43;82.07813;953.5136;;;;
2023/02/06 07:45:00;;;;;;;16.6;12.5;;;;;;;2.4;81.83789;953.5183;;;;
2023/02/06 07:47:28;;;;;;;16.1;12.1;;;;;;;2.21;81.64453;953.3979;;;;
2023/02/06 07:49:53;;;;;;;17.4;12.2;;;;;;;2.06;82.74414;953.3967;;;;
2023/02/06 07:52:21;;;;;;;16;11.5;;;;;;;1.95;82.47852;953.3239;;;;
2023/02/06 07:54:46;;;;;;;17;12.2;;;;;;;2.11;82.7207;953.2266;;;;
2023/02/06 07:57:14;;;;;;;16.8;12.2;;;;;;;2.3;82.00879;953.358;;;;
2023/02/06 07:59:39;;;;;;;17.2;12.5;;;;;;;2.27;81.49805;953.3582;;;;
2023/02/06 08:02:04;;;;;;;16.6;12.5;;;;;;;2.3;81.34668;953.3947;;;;
2023/02/06 08:04:34;;;;;;;16.2;12.3;;;;;;;2.36;81.42578;953.3917;;;;
2023/02/06 08:07:03;;;;;;;16.9;12.6;;;;;;;2.58;81.2334;953.3912;;;;
2023/02/06 08:09:28;;;;;;;17.7;12.5;;;;;;;2.57;81.11816;953.3519;;;;
2023/02/06 08:11:53;;;;;;;17.2;12.8;;;;;;;2.66;80.50781;953.2991;;;;
2023/02/06 08:14:23;;;;;;;18.2;13;;;;;;;2.67;80.45313;953.3524;;;;
2023/02/06 08:16:48;;;;;;;18.7;12.9;;;;;;;2.57;80.69238;953.3702;;;;
2023/02/06 08:19:19;;;;;;;17.8;12.7;;;;;;;2.56;81.37402;953.3861;;;;
2023/02/06 08:21:44;;;;;;;16.5;12.5;;;;;;;2.59;81.06543;953.3761;;;;
2023/02/06 08:24:13;;;;;;;16.4;12.7;;;;;;;2.78;80.33984;953.3606;;;;
2023/02/06 08:26:38;;;;;;;17.7;12.7;;;;;;;2.86;79.61621;953.378;;;;
2023/02/06 08:29:08;;;;;;;17.6;13;;;;;;;3.02;78.84863;953.3147;;;;
2023/02/06 08:31:33;;;;;;;18.5;13.1;;;;;;;3.26;78.34375;953.1994;;;;
2023/02/06 08:34:05;;;;;;;17.1;12.7;;;;;;;3.46;77.18848;953.2642;;;;
2023/02/06 08:36:38;;;;;;;15.7;11.9;;;;;;;3.89;76.66016;953.3824;;;;
2023/02/06 08:39:06;;;;;;;17.9;12.7;;;;;;;3.99;74.7998;953.3272;;;;
2023/02/06 08:41:38;;;;;;;17.4;11.7;;;;;;;4.23;74.34766;953.3139;;;;
2023/02/06 08:44:10;;;;;;;16.6;11.9;;;;;;;4.24;73.92188;953.2911;;;;
2023/02/06 08:46:38;;;;;;;14.7;11;;;;;;;5.36;70.86719;953.2482;;;;
2023/02/06 08:49:09;;;;;;;15;10.8;;;;;;;6.08;66.34082;953.2955;;;;
2023/02/06 08:51:39;;;;;;;14.7;9.7;;;;;;;7;65.30762;953.2888;;;;
2023/02/06 08:54:04;;;;;;;11.4;9;;;;;;;8.56;60.34961;953.2686;;;;
2023/02/06 08:56:30;;;;;;;13.4;9;;;;;;;9.95;55.39063;953.1976;;;;
2023/02/06 08:58:59;;;;;;;13;9.6;;;;;;;9.67;54.75098;953.2254;;;;
2023/02/06 09:01:24;;;;;;;11.4;8.8;;;;;;;8.7;56.93652;953.2786;;;;
2023/02/06 09:03:49;;;;;;;13.3;9.6;;;;;;;8.47;58.65527;953.3181;;;;
2023/02/06 09:06:16;;;;;;;14;10.4;;;;;;;7.8;60.83301;953.3641;;;;
2023/02/06 09:08:41;;;;;;;12.6;10.2;;;;;;;6.5;64.30273;953.537;;;;
2023/02/06 09:11:10;;;;;;;14.1;10.3;;;;;;;6.07;65.73047;953.5737;;;;
2023/02/06 09:13:46;;;;;;;13.3;10.6;;;;;;;5.63;67.34473;953.5758;;;;
2023/02/06 09:16:17;;;;;;;14.7;11.2;;;;;;;5.04;69.37012;953.6833;;;;
2023/02/06 09:18:45;;;;;;;13.1;10.1;;;;;;;4.71;71.47949;953.7158;;;;
2023/02/06 09:21:10;;;;;;;13.9;11.1;;;;;;;4.5;72.01758;953.7349;;;;
2023/02/06 09:23:35;;;;;;;15.3;11.8;;;;;;;3.89;74.25391;953.6554;;;;
2023/02/06 09:26:00;;;;;;;15.4;11.8;;;;;;;3.72;75.20215;953.7952;;;;
2023/02/06 09:28:25;;;;;;;14.3;11.4;;;;;;;3.46;75.69629;953.696;;;;
2023/02/06 09:30:50;;;;;;;15.3;11.7;;;;;;;3.22;77.63965;953.7431;;;;
2023/02/06 09:33:22;;;;;;;16.7;12.1;;;;;;;3.36;78.0459;953.7683;;;;
2023/02/06 09:35:49;;;;;;;14.8;11.2;;;;;;;3.66;75.6416;953.8378;;;;
2023/02/06 09:38:15;;;;;;;14.1;11.8;;;;;;;3.7;76.41211;953.6987;;;;
2023/02/06 09:40:44;;;;;;;15.7;11.2;;;;;;;3.81;75.9834;953.6808;;;;
2023/02/06 09:43:09;;;;;;;13.2;11.1;;;;;;;4.08;73.58008;953.7096;;;;
2023/02/06 09:45:40;;;;;;;14.4;10.9;;;;;;;3.92;73.50684;953.666;;;;
2023/02/06 09:48:07;;;;;;;15.4;11.3;;;;;;;3.71;74.63867;953.7347;;;;
2023/02/06 09:50:32;;;;;;;13.9;10.7;;;;;;;3.57;73.42383;953.7145;;;;
2023/02/06 09:53:02;;;;;;;14.6;11.3;;;;;;;3.69;74.18555;953.8008;;;;
2023/02/06 09:55:27;;;;;;;13.2;10.6;;;;;;;3.91;73.77539;953.8387;;;;
2023/02/06 09:57:53;;;;;;;14.5;9.7;;;;;;;3.38;73.8291;953.8428;;;;
2023/02/06 10:00:19;;;;;;;13.3;10.7;;;;;;;3.13;75.66113;953.9106;;;;
2023/02/06 10:02:44;;;;;;;13.7;10.6;;;;;;;3.1;75.37402;953.83;;;;
2023/02/06 10:05:17;;;;;;;13.2;9.8;;;;;;;3.14;75.42676;953.83;;;;
2023/02/06 10:07:44;;;;;;;13.3;10.4;;;;;;;2.98;75.7793;953.8;;;;
2023/02/06 10:10:18;;;;;;;14.3;10.8;;;;;;;2.92;78.07715;953.8069;;;;
2023/02/06 10:12:47;;;;;;;15.3;10;;;;;;;3.81;74.48828;953.6572;;;;
2023/02/06 10:15:12;;;;;;;13.3;9.5;;;;;;;4.42;69.68652;953.5549;;;;
2023/02/06 10:17:43;;;;;;;12.1;9.4;;;;;;;5.42;67.34473;953.5361;;;;
2023/02/06 10:20:09;;;;;;;13.3;10;;;;;;;5.64;67.57227;953.514;;;;
2023/02/06 10:22:37;;;;;;;10.4;8.5;;;;;;;5.53;64.95898;953.4324;;;;
2023/02/06 10:25:02;;;;;;;11.8;9.3;;;;;;;4.7;69.16895;953.3986;;;;
2023/02/06 10:27:31;;;;;;;14.8;10.3;;;;;;;4.19;69.54688;953.3181;;;;
2023/02/06 10:30:01;;;;;;;13.9;10.5;;;;;;;4.26;71.02344;953.3181;;;;
2023/02/06 10:32:26;;;;;;;14.7;10.7;;;;;;;4.56;69.22461;953.351;;;;
2023/02/06 10:34:52;;;;;;;13.8;10.5;;;;;;;4.74;68.17285;953.2683;;;;
2023/02/06 10:37:29;;;;;;;12.5;10.1;;;;;;;4.85;69.22852;953.1097;;;;
2023/02/06 10:39:59;;;;;;;14.3;10.1;;;;;;;4.61;71.60938;953.0851;;;;
2023/02/06 10:42:26;;;;;;;12.7;9.9;;;;;;;4.61;70.48242;952.9697;;;;
2023/02/06 10:44:51;;;;;;;13.2;9.9;;;;;;;4.22;71.08203;952.9286;;;;
2023/02/06 10:47:17;;;;;;;14.6;11.2;;;;;;;4.07;72.04688;952.8764;;;;
2023/02/06 10:49:46;;;;;;;13.1;10.9;;;;;;;4.08;73.18457;952.8281;;;;
2023/02/06 10:52:14;;;;;;;16.3;11;;;;;;;3.97;74.12207;952.7;;;;
2023/02/06 10:54:43;;;;;;;13.3;10.7;;;;;;;3.98;72.77441;952.6117;;;;
2023/02/06 10:57:08;;;;;;;13.4;10.5;;;;;;;3.8;73.08203;952.472;;;;
2023/02/06 10:59:33;;;;;;;14.3;10.5;;;;;;;3.84;73.35645;952.4949;;;;
2023/02/06 11:02:00;;;;;;;13.8;10;;;;;;;3.78;72.63867;952.4249;;;;
2023/02/06 11:04:27;;;;;;;15;10.8;;;;;;;3.63;73.0625;952.3769;;;;
2023/02/06 11:06:55;;;;;;;14.6;10.6;;;;;;;3.84;73.66113;952.3334;;;;
2023/02/06 11:09:20;;;;;;;13.3;9.8;;;;;;;4.2;71.58594;952.2342;;;;
2023/02/06 11:11:46;;;;;;;12.5;9.6;;;;;;;3.9;72.68164;952.1255;;;;
2023/02/06 11:14:10;;;;;;;12.3;9.4;;;;;;;4.22;70.85645;952.0652;;;;
2023/02/06 11:16:37;;;;;;;11.5;9.1;;;;;;;4.35;70.14648;951.8713;;;;
2023/02/06 11:19:02;;;;;;;10.9;8.5;;;;;;;4.31;69.91699;951.8267;;;;
2023/02/06 11:21:29;;;;;;;12.6;9.3;;;;;;;4.25;71.34766;951.9214;;;;
2023/02/06 11:23:55;;;;;;;10;8.6;;;;;;;3.74;73.45215;951.8317;;;;
2023/02/06 11:26:20;;;;;;;10.1;8.7;;;;;;;3.73;73.40723;951.8187;;;;
2023/02/06 11:28:49;;;;;;;10.3;8.1;;;;;;;3.73;72.83203;951.8847;;;;
2023/02/06 11:31:20;;;;;;;9.8;7.5;;;;;;;3.8;71.23828;951.8461;;;;
2023/02/06 11:33:47;;;;;;;9.7;7.4;;;;;;;4.02;70.98145;951.8117;;;;
2023/02/06 11:36:17;;;;;;;9.7;7.9;;;;;;;4.66;69.90527;951.7797;;;;
2023/02/06 11:38:40;;;;;;;9.5;7.9;;;;;;;4.68;69.39063;951.7492;;;;
2023/02/06 11:41:07;;;;;;;9.5;7.6;;;;;;;5.04;66.77734;951.637;;;;
2023/02/06 11:43:37;;;;;;;9.9;8.1;;;;;;;4.61;71.29395;951.5911;;;;
2023/02/06 11:46:02;;;;;;;10.8;8.6;;;;;;;4.63;71.02539;951.6124;;;;
2023/02/06 11:48:28;;;;;;;10.1;8.3;;;;;;;4.67;69.15332;951.5485;;;;
2023/02/06 11:50:53;;;;;;;11.3;8.2;;;;;;;5.1;67.20605;951.5621;;;;
2023/02/06 11:53:19;;;;;;;12.4;8.3;;;;;;;5.68;71.56445;951.5327;;;;
2023/02/06 11:55:45;;;;;;;12.6;7.5;;;;;;;6.47;64.24219;951.502;;;;
2023/02/06 11:58:10;;;;;;;10.4;8.3;;;;;;;6.09;64.69434;951.4457;;;;
2023/02/06 12:00:37;;;;;;;11.6;8.7;;;;;;;5.94;64.20898;951.3666;;;;
2023/02/06 12:03:00;;;;;;;10.2;8;;;;;;;6.48;63.92676;951.3515;;;;
2023/02/06 12:05:25;;;;;;;9.3;7.5;;;;;;;7.14;60.66113;951.2891;;;;
2023/02/06 12:07:53;;;;;;;8.6;7;;;;;;;9.12;55.19434;951.1776;;;;
2023/02/06 12:10:24;;;;;;;7;6.3;;;;;;;9.78;51.41406;951.1244;;;;
2023/02/06 12:12:49;;;;;;;7.1;6.1;;;;;;;9.56;52.39063;951.1575;;;;
2023/02/06 12:15:19;;;;;;;7.5;6.3;;;;;;;9.87;51.51758;951.1653;;;;
2023/02/06 12:17:45;;;;;;;7.8;6.7;;;;;;;9.87;51.93848;951.1383;;;;
2023/02/06 12:20:12;;;;;;;7.2;6;;;;;;;9.32;51.99707;951.1472;;;;
2023/02/06 12:22:39;;;;;;;7.6;6.5;;;;;;;8.31;54.8877;951.0977;;;;
2023/02/06 12:25:12;;;;;;;7.1;6.1;;;;;;;8.19;55.51855;951.057;;;;
2023/02/06 12:27:44;;;;;;;8.2;6.2;;;;;;;7.28;56.15918;951.0917;;;;
2023/02/06 12:30:09;;;;;;;9.3;6.7;;;;;;;6.86;58.57227;951.0444;;;;
2023/02/06 12:32:36;;;;;;;8.2;6.4;;;;;;;5.97;61.26465;951.0002;;;;
2023/02/06 12:35:02;;;;;;;7;5.9;;;;;;;4.88;64.73633;950.8994;;;;
2023/02/06 12:37:30;;;;;;;9.6;6.7;;;;;;;4.56;68.02148;950.9872;;;;
2023/02/06 12:39:58;;;;;;;8.7;6.9;;;;;;;4.3;68.7334;950.8642;;;;
2023/02/06 12:42:23;;;;;;;10.2;7.2;;;;;;;4.2;70.50684;950.8247;;;;
2023/02/06 12:44:48;;;;;;;9.5;7.4;;;;;;;4.15;69.91211;950.8577;;;;
2023/02/06 12:47:15;;;;;;;9.5;7.6;;;;;;;3.91;71.49316;950.8237;;;;
2023/02/06 12:49:45;;;;;;;10.3;7.9;;;;;;;4.13;70.43848;950.9455;;;;
2023/02/06 12:52:13;;;;;;;10.3;7.6;;;;;;;4.1;68.66602;950.9612;;;;
2023/02/06 12:54:38;;;;;;;10.4;7.6;;;;;;;4.08;69.27051;950.8898;;;;
2023/02/06 12:57:04;;;;;;;10;6.7;;;;;;;4.56;71.06055;950.8851;;;;
2023/02/06 12:59:29;;;;;;;9;6.7;;;;;;;4.72;69.31836;950.8976;;;;
2023/02/06 13:02:04;;;;;;;9.3;7.2;;;;;;;4.59;70.3457;950.7968;;;;
2023/02/06 13:04:28;;;;;;;10.6;7.6;;;;;;;4.4;69.89648;950.7031;;;;
2023/02/06 13:06:53;;;;;;;10.9;7.5;;;;;;;4.55;70.03418;950.6672;;;;
2023/02/06 13:09:20;;;;;;;9.6;8;;;;;;;4.45;69.96094;950.5837;;;;
2023/02/06 13:11:47;;;;;;;11.2;8.6;;;;;;;4.32;73.0127;950.5319;;;;
2023/02/06 13:14:12;;;;;;;11.4;8.7;;;;;;;4.22;70.59961;950.4603;;;;
2023/02/06 13:16:37;;;;;;;11;8.3;;;;;;;4.23;70.75684;950.3092;;;;
2023/02/06 13:19:05;;;;;;;12.5;8.6;;;;;;;4.19;69.9873;950.2961;;;;
2023/02/06 13:21:35;;;;;;;11;8.7;;;;;;;3.9;70.52441;950.3828;;;;
2023/02/06 13:24:05;;;;;;;13.5;9.3;;;;;;;3.76;70.77051;950.3726;;;;
2023/02/06 13:26:35;;;;;;;12.4;9.8;;;;;;;3.31;73.54492;950.4422;;;;
2023/02/06 13:29:05;;;;;;;12.2;9.2;;;;;;;3.38;73.05371;950.4071;;;;
2023/02/06 13:31:31;;;;;;;14;10;;;;;;;2.95;74.48242;950.3412;;;;
2023/02/06 13:33:56;;;;;;;11.8;9.9;;;;;;;2.52;76.5918;950.3822;;;;
2023/02/06 13:36:27;;;;;;;12.9;10.3;;;;;;;2.37;77.40625;950.382;;;;
2023/02/06 13:38:59;;;;;;;14.8;10.5;;;;;;;2.28;78.20703;950.4114;;;;
2023/02/06 13:41:25;;;;;;;18.3;12.1;;;;;;;2.41;77.47949;950.4048;;;;
2023/02/06 13:43:50;;;;;;;16.9;12.2;;;;;;;2.49;77.33789;950.3911;;;;
2023/02/06 13:46:21;;;;;;;15.6;12;;;;;;;2.4;77.0752;950.4071;;;;
2023/02/06 13:48:46;;;;;;;16.1;12.8;;;;;;;2.16;77.83691;950.4664;;;;
2023/02/06 13:51:11;;;;;;;18.1;12.7;;;;;;;2.08;78.87402;950.463;;;;
2023/02/06 13:53:36;;;;;;;16.6;12;;;;;;;1.97;78.84473;950.4855;;;;
2023/02/06 13:56:04;;;;;;;18.4;13.3;;;;;;;2.03;79.23535;950.476;;;;
2023/02/06 13:58:31;;;;;;;18.8;13.1;;;;;;;2.22;79.05957;950.5624;;;;
2023/02/06 14:00:56;;;;;;;16.3;11.4;;;;;;;2.03;79.3916;950.6046;;;;
2023/02/06 14:03:21;;;;;;;15.9;12.5;;;;;;;2.1;79.33789;950.5579;;;;
2023/02/06 14:05:46;;;;;;;15.8;11.7;;;;;;;2.27;78.17188;950.4866;;;;
2023/02/06 14:08:13;;;;;;;14.5;11.7;;;;;;;2.39;77.83496;950.6353;;;;
2023/02/06 14:10:39;;;;;;;15.3;11.3;;;;;;;2.24;77.99707;950.7126;;;;
2023/02/06 14:13:07;;;;;;;15.1;10.4;;;;;;;2.1;77.61426;950.6622;;;;
2023/02/06 14:15:32;;;;;;;14.9;10.8;;;;;;;2.17;76.76465;950.6691;;;;
2023/02/06 14:18:00;;;;;;;15;10.5;;;;;;;2.12;77.56152;950.7524;;;;
2023/02/06 14:20:25;;;;;;;16.2;11.1;;;;;;;2.18;77.21484;950.7385;;;;
2023/02/06 14:22:55;;;;;;;16.4;12.6;;;;;;;1.91;77.92578;950.7173;;;;
2023/02/06 14:25:23;;;;;;;16.3;11.3;;;;;;;1.99;77.22461;950.7025;;;;
2023/02/06 14:27:48;;;;;;;16.4;12.1;;;;;;;1.97;77.25488;950.7383;;;;
2023/02/06 14:30:19;;;;;;;15.1;11;;;;;;;1.98;77.2793;950.7877;;;;
2023/02/06 14:32:49;;;;;;;14.8;11.5;;;;;;;1.83;78.29199;950.7855;;;;
2023/02/06 14:35:21;;;;;;;15.5;11.3;;;;;;;1.75;78.2207;950.8492;;;;
2023/02/06 14:37:46;;;;;;;15.4;10.8;;;;;;;1.71;78.37109;950.7986;;;;
2023/02/06 14:40:14;;;;;;;16;10.9;;;;;;;1.39;79.27148;950.7464;;;;
2023/02/06 14:42:40;;;;;;;15.2;10.8;;;;;;;1.55;79.41406;950.7601;;;;
2023/02/06 14:45:05;;;;;;;14;9.7;;;;;;;1.49;78.69922;950.7972;;;;
2023/02/06 14:47:33;;;;;;;15.5;10.1;;;;;;;1.36;79.76953;950.8578;;;;
2023/02/06 14:50:01;;;;;;;13.6;10;;;;;;;1.47;79.8252;950.9359;;;;
2023/02/06 14:52:29;;;;;;;13;9.1;;;;;;;1.46;79.00781;950.9484;;;;
2023/02/06 14:54:54;;;;;;;12.5;9.2;;;;;;;1.22;79.78711;950.8754;;;;
2023/02/06 14:57:19;;;;;;;12.5;9;;;;;;;1.01;80.02734;950.9821;;;;
2023/02/06 14:59:44;;;;;;;12.1;9.3;;;;;;;1.05;79.72266;951.0452;;;;
2023/02/06 15:02:14;;;;;;;11.8;8.3;;;;;;;1.18;79.04492;951.0334;;;;
2023/02/06 15:04:39;;;;;;;12.7;9;;;;;;;1.04;79.19629;951.0173;;;;
2023/02/06 15:07:05;;;;;;;12.1;8.5;;;;;;;1.02;78.8916;950.9244;;;;
2023/02/06 15:09:34;;;;;;;11.4;8.8;;;;;;;0.91;78.98242;951.062;;;;
2023/02/06 15:11:59;;;;;;;12;8;;;;;;;0.9;78.8252;951.088;;;;
2023/02/06 15:14:28;;;;;;;10.8;7.9;;;;;;;1.05;78.68555;950.9797;;;;
2023/02/06 15:16:55;;;;;;;12.1;8.9;;;;;;;1.12;78.32715;951.0715;;;;
2023/02/06 15:19:22;;;;;;;12.3;7.6;;;;;;;1.09;77.61914;951.0987;;;;
2023/02/06 15:21:47;;;;;;;10.3;8;;;;;;;0.97;77.3291;951.1738;;;;
2023/02/06 15:24:12;;;;;;;9.5;7.4;;;;;;;0.89;77.69434;951.0955;;;;
2023/02/06 15:26:37;;;;;;;8.8;7.6;;;;;;;0.82;77.70313;950.9919;;;;
2023/02/06 15:29:02;;;;;;;9.2;7.2;;;;;;;0.72;77.84277;950.947;;;;
2023/02/06 15:31:27;;;;;;;10.9;7.4;;;;;;;0.7;78.51855;950.8741;;;;